createdAt,value
2018-11-12T00:00:16.724Z,69.20
2018-11-12T00:02:47.566Z,69.10
2018-11-12T00:05:15.591Z,69.20
2018-11-12T00:07:43.420Z,69.10
2018-11-12T00:10:11.538Z,69.20
2018-11-12T00:12:39.317Z,69.20
2018-11-12T00:15:07.936Z,69.30
2018-11-12T00:17:35.554Z,69.30
2018-11-12T00:20:20.098Z,70.10
2018-11-12T00:22:47.906Z,69.40
2018-11-12T00:25:15.447Z,69.40
2018-11-12T00:27:43.711Z,69.30
2018-11-12T00:30:24.776Z,69.40
2018-11-12T00:32:53.772Z,69.50
2018-11-12T00:35:36.260Z,69.50
2018-11-12T00:38:04.751Z,69.50
2018-11-12T00:40:32.278Z,69.50
2018-11-12T00:42:59.857Z,69.60
2018-11-12T00:45:27.809Z,69.70
2018-11-12T00:47:55.450Z,69.80
2018-11-12T00:50:22.978Z,69.70
2018-11-12T00:52:50.670Z,69.80
2018-11-12T00:55:18.531Z,69.90
2018-11-12T00:57:46.090Z,69.90
2018-11-12T01:00:16.414Z,70.00
2018-11-12T01:02:47.634Z,70.00
2018-11-12T01:05:15.834Z,70.00
2018-11-12T01:07:43.386Z,70.70
2018-11-12T01:10:13.471Z,70.20
2018-11-12T01:12:41.668Z,70.20
2018-11-12T01:15:11.395Z,70.20
2018-11-12T01:17:39.286Z,70.20
2018-11-12T01:20:08.121Z,70.20
2018-11-12T01:22:35.681Z,70.30
2018-11-12T01:25:03.450Z,70.40
2018-11-12T01:27:32.037Z,70.40
2018-11-12T01:29:59.653Z,70.30
2018-11-12T01:32:27.357Z,70.30
2018-11-12T01:34:54.854Z,70.50
2018-11-12T01:37:22.229Z,70.40
2018-11-12T01:39:50.002Z,70.30
2018-11-12T01:42:18.559Z,70.40
2018-11-12T01:44:46.211Z,70.40
2018-11-12T01:47:13.690Z,70.50
2018-11-12T01:49:41.439Z,70.50
2018-11-12T01:52:08.993Z,70.50
2018-11-12T01:54:36.551Z,70.60
2018-11-12T01:57:04.403Z,70.60
2018-11-12T01:59:31.960Z,70.60
2018-11-12T02:01:59.575Z,70.50
2018-11-12T02:04:27.358Z,70.60
2018-11-12T02:06:54.970Z,70.70
2018-11-12T02:09:22.459Z,70.70
2018-11-12T02:11:50.328Z,70.80
2018-11-12T02:14:17.906Z,70.80
2018-11-12T02:16:45.456Z,70.80
2018-11-12T02:19:12.959Z,70.80
2018-11-12T02:21:40.968Z,70.90
2018-11-12T02:24:08.562Z,70.90
2018-11-12T02:26:36.066Z,70.90
2018-11-12T02:29:03.913Z,70.90
2018-11-12T02:31:31.506Z,71.00
2018-11-12T02:33:59.022Z,71.00
2018-11-12T02:36:34.084Z,71.10
2018-11-12T02:39:17.688Z,71.00
2018-11-12T02:41:45.474Z,71.00
2018-11-12T02:44:13.096Z,71.00
2018-11-12T02:46:40.622Z,71.00
2018-11-12T02:49:08.584Z,71.00
2018-11-12T02:51:36.198Z,71.00
2018-11-12T02:54:04.040Z,71.00
2018-11-12T02:56:32.009Z,71.00
2018-11-12T02:58:59.871Z,71.00
2018-11-12T03:01:27.392Z,71.00
2018-11-12T03:03:54.947Z,71.10
2018-11-12T03:06:22.864Z,71.10
2018-11-12T07:25:44.707Z,71.20
2018-11-12T07:28:12.355Z,71.70
2018-11-12T07:30:40.171Z,71.60
2018-11-12T07:33:07.644Z,71.50
2018-11-12T07:35:35.192Z,71.60
2018-11-12T07:38:04.937Z,71.50
2018-11-12T07:40:32.478Z,71.50
2018-11-12T07:43:00.090Z,71.60
2018-11-12T07:45:28.546Z,71.50
2018-11-12T07:47:56.776Z,71.40
2018-11-12T07:50:25.703Z,71.40
2018-11-12T07:52:53.602Z,71.30
2018-11-12T07:55:22.434Z,71.30
2018-11-12T07:57:51.797Z,71.30
2018-11-12T08:00:22.970Z,71.30
2018-11-12T08:02:53.892Z,71.30
2018-11-12T08:05:21.549Z,71.40
2018-11-12T08:07:49.218Z,71.40
2018-11-12T08:10:18.254Z,71.50
2018-11-12T08:12:46.230Z,71.40
2018-11-12T08:15:15.342Z,71.20
2018-11-12T08:17:43.159Z,71.20
2018-11-12T08:20:13.966Z,71.00
2018-11-12T08:22:42.265Z,70.80
2018-11-12T08:25:11.012Z,70.50
2018-11-12T08:27:38.889Z,70.40
2018-11-12T08:30:12.879Z,70.10
2018-11-12T08:32:41.026Z,70.00
2018-11-12T08:35:08.663Z,69.80
2018-11-12T08:37:36.673Z,69.60
2018-11-12T08:40:07.408Z,69.40
2018-11-12T08:42:34.855Z,69.20
2018-11-12T08:45:03.176Z,69.00
2018-11-12T08:47:30.741Z,68.90
2018-11-12T08:49:58.749Z,68.70
2018-11-12T08:52:27.319Z,68.50
2018-11-12T08:54:54.853Z,68.50
2018-11-12T08:57:22.460Z,68.50
2018-11-12T08:59:50.379Z,68.50
2018-11-12T09:02:17.972Z,68.50
2018-11-12T09:04:45.562Z,68.60
2018-11-12T09:07:13.640Z,68.60
2018-11-12T09:09:40.992Z,68.60
2018-11-12T09:12:08.509Z,68.50
2018-11-12T09:14:36.352Z,68.40
2018-11-12T09:17:04.062Z,68.40
2018-11-12T09:19:31.869Z,69.10
2018-11-12T09:21:59.612Z,68.50
2018-11-12T09:24:27.263Z,68.50
2018-11-12T09:26:54.772Z,68.50
2018-11-12T09:29:22.609Z,68.50
2018-11-12T09:31:50.312Z,68.60
2018-11-12T09:34:18.073Z,68.60
2018-11-12T09:36:46.088Z,68.70
2018-11-12T09:39:13.540Z,68.80
2018-11-12T09:41:41.063Z,69.00
2018-11-12T09:44:09.231Z,69.30
2018-11-12T09:46:36.743Z,69.70
2018-11-12T09:49:05.112Z,69.80
2018-11-12T09:51:32.954Z,69.70
2018-11-12T09:54:00.629Z,69.60
2018-11-12T09:56:28.373Z,69.70
2018-11-12T09:58:56.258Z,70.10
2018-11-12T10:01:24.382Z,70.50
2018-11-12T10:03:52.396Z,71.10
2018-11-12T10:06:20.539Z,71.50
2018-11-12T10:11:17.767Z,70.60
2018-11-12T10:13:44.006Z,71.20
2018-11-12T10:16:13.905Z,70.60
2018-11-12T10:18:37.663Z,70.00
2018-11-12T10:21:05.547Z,69.50
2018-11-12T10:23:33.267Z,69.00
2018-11-12T10:26:00.851Z,68.80
2018-11-12T10:28:28.411Z,68.20
2018-11-12T10:30:56.231Z,67.70
2018-11-12T10:33:23.800Z,66.80
2018-11-12T10:35:51.307Z,65.90
2018-11-12T10:38:19.339Z,65.30
2018-11-12T10:40:46.933Z,64.80
2018-11-12T10:43:14.513Z,64.90
2018-11-12T10:45:42.276Z,64.30
2018-11-12T10:48:09.939Z,63.50
2018-11-12T10:50:37.564Z,63.00
2018-11-12T10:53:05.580Z,62.50
2018-11-12T10:55:33.418Z,62.10
2018-11-12T10:58:00.963Z,61.50
2018-11-12T11:00:37.201Z,61.50
2018-11-12T11:03:12.927Z,61.20
2018-11-12T11:05:41.801Z,61.20
2018-11-12T11:08:09.372Z,61.00
2018-11-12T11:10:36.934Z,60.50
2018-11-12T11:13:06.214Z,59.90
2018-11-12T11:15:34.620Z,59.70
2018-11-12T11:18:02.196Z,59.70
2018-11-12T11:20:30.148Z,60.00
2018-11-12T11:22:57.904Z,59.40
2018-11-12T11:25:25.623Z,59.70
2018-11-12T11:27:53.486Z,59.40
2018-11-12T11:30:21.133Z,59.00
2018-11-12T11:32:48.908Z,58.40
2018-11-12T11:35:17.481Z,57.70
2018-11-12T11:37:45.033Z,57.30
2018-11-12T11:40:14.769Z,56.90
2018-11-12T11:42:42.641Z,56.50
2018-11-12T11:45:11.987Z,55.90
2018-11-12T11:47:40.421Z,55.80
2018-11-12T11:50:10.101Z,55.80
2018-11-12T11:52:37.624Z,56.00
2018-11-12T11:55:08.044Z,56.30
2018-11-12T11:57:36.236Z,56.50
2018-11-12T12:00:12.131Z,57.10
2018-11-12T12:02:40.300Z,56.50
2018-11-12T12:05:09.087Z,56.20
2018-11-12T12:07:36.693Z,57.00
2018-11-12T12:10:04.424Z,56.20
2018-11-12T12:12:31.936Z,56.00
2018-11-12T12:15:00.048Z,55.80
2018-11-12T12:17:28.204Z,55.70
2018-11-12T12:19:55.817Z,55.80
2018-11-12T12:22:23.287Z,56.00
2018-11-12T12:24:51.052Z,56.20
2018-11-12T12:27:18.536Z,56.40
2018-11-12T12:29:46.106Z,56.40
2018-11-12T12:32:13.789Z,56.50
2018-11-12T12:34:41.347Z,56.30
2018-11-12T12:37:08.948Z,55.90
2018-11-12T12:39:36.804Z,55.70
2018-11-12T12:42:04.392Z,55.80
2018-11-12T12:44:33.367Z,55.80
2018-11-12T12:47:01.748Z,55.90
2018-11-12T12:49:29.397Z,56.00
2018-11-12T12:51:56.920Z,56.10
2018-11-12T12:54:25.475Z,55.90
2018-11-12T12:56:53.058Z,56.30
2018-11-12T12:59:21.332Z,55.60
2018-11-12T13:01:49.302Z,55.80
2018-11-12T13:04:16.722Z,56.00
2018-11-12T13:06:44.343Z,56.10
2018-11-12T13:09:13.468Z,56.10
2018-11-12T13:11:41.117Z,56.00
2018-11-12T13:14:08.896Z,56.00
2018-11-12T13:16:36.504Z,56.10
2018-11-12T13:19:04.223Z,56.20
2018-11-12T13:21:32.095Z,56.20
2018-11-12T13:23:59.817Z,56.30
2018-11-12T13:26:27.427Z,56.40
2018-11-12T13:28:55.071Z,56.40
2018-11-12T13:31:23.025Z,56.30
2018-11-12T13:33:50.656Z,56.20
2018-11-12T13:36:18.198Z,56.30
2018-11-12T13:38:46.033Z,56.40
2018-11-12T13:41:13.628Z,56.40
2018-11-12T13:43:41.246Z,56.40
2018-11-12T13:46:09.118Z,56.50
2018-11-12T13:48:36.807Z,56.50
2018-11-12T13:51:04.755Z,56.40
2018-11-12T13:53:32.287Z,56.40
2018-11-12T13:56:00.217Z,56.30
2018-11-12T13:58:27.815Z,56.30
2018-11-12T14:00:55.334Z,56.20
2018-11-12T14:03:23.199Z,56.50
2018-11-12T14:05:50.784Z,56.40
2018-11-12T14:08:18.362Z,56.30
2018-11-12T14:10:45.895Z,56.30
2018-11-12T14:13:13.687Z,56.40
2018-11-12T14:15:41.171Z,56.70
2018-11-12T14:18:08.749Z,56.80
2018-11-12T14:20:36.451Z,57.00
2018-11-12T14:23:04.028Z,57.10
2018-11-12T14:25:31.663Z,57.30
2018-11-12T14:27:59.385Z,57.50
2018-11-12T14:30:28.216Z,57.40
2018-11-12T14:32:56.050Z,57.50
2018-11-12T14:35:24.079Z,57.60
2018-11-12T14:37:51.644Z,57.80
2018-11-12T14:40:19.453Z,57.80
2018-11-12T14:42:47.126Z,57.90
2018-11-12T14:45:22.449Z,58.10
2018-11-12T14:47:50.438Z,58.20
2018-11-12T14:50:18.062Z,58.40
2018-11-12T14:52:47.454Z,58.60
2018-11-12T14:55:15.911Z,58.70
2018-11-12T14:57:43.463Z,58.90
2018-11-12T15:00:15.734Z,59.00
2018-11-12T15:02:43.312Z,59.20
2018-11-12T15:05:10.595Z,59.30
2018-11-12T15:07:38.331Z,59.40
2018-11-12T15:10:08.697Z,59.50
2018-11-12T15:12:36.276Z,59.50
2018-11-12T15:15:04.929Z,59.70
2018-11-12T15:17:32.403Z,59.70
2018-11-12T15:19:59.936Z,59.90
2018-11-12T15:22:28.125Z,60.00
2018-11-12T15:24:55.640Z,60.20
2018-11-12T15:27:23.199Z,60.20
2018-11-12T15:29:50.983Z,60.40
2018-11-12T15:32:18.577Z,60.50
2018-11-12T15:34:46.402Z,60.70
2018-11-12T15:37:14.339Z,60.80
2018-11-12T15:39:42.191Z,60.90
2018-11-12T15:42:09.743Z,61.00
2018-11-12T15:44:37.754Z,61.00
2018-11-12T15:47:05.286Z,61.20
2018-11-12T15:49:32.869Z,61.30
2018-11-12T15:52:00.831Z,61.40
2018-11-12T15:54:28.387Z,61.50
2018-11-12T15:56:55.978Z,61.60
2018-11-12T15:59:23.735Z,61.60
2018-11-12T16:01:51.282Z,61.70
2018-11-12T16:04:18.835Z,61.90
2018-11-12T16:06:47.591Z,62.00
2018-11-12T16:09:16.006Z,62.00
2018-11-12T16:11:44.288Z,62.00
2018-11-12T16:14:11.803Z,62.10
2018-11-12T16:16:39.654Z,62.30
2018-11-12T16:19:09.854Z,62.50
2018-11-12T16:21:37.391Z,62.50
2018-11-12T16:24:07.488Z,62.60
2018-11-12T16:26:35.243Z,62.70
2018-11-12T16:29:16.795Z,62.80
2018-11-12T16:31:48.807Z,62.90
2018-11-12T16:34:16.370Z,63.00
2018-11-12T16:36:44.029Z,63.20
2018-11-12T16:39:11.803Z,63.30
2018-11-12T16:41:39.806Z,63.40
2018-11-12T16:44:07.895Z,63.40
2018-11-12T16:46:35.833Z,63.40
2018-11-12T16:49:15.305Z,63.40
2018-11-12T16:51:43.124Z,63.50
2018-11-12T16:54:10.631Z,63.40
2018-11-12T16:56:38.242Z,63.60
2018-11-12T16:59:06.144Z,63.60
2018-11-12T17:01:33.717Z,63.70
2018-11-12T17:04:01.215Z,63.80
2018-11-12T17:06:35.228Z,63.90
2018-11-12T17:09:08.514Z,63.90
2018-11-12T17:11:37.486Z,64.00
2018-11-12T17:14:05.655Z,63.90
2018-11-12T17:16:33.132Z,64.00
2018-11-12T17:19:11.067Z,64.00
2018-11-12T17:21:38.653Z,64.00
2018-11-12T17:24:09.723Z,64.00
2018-11-12T17:26:37.331Z,64.10
2018-11-12T17:29:04.947Z,64.10
2018-11-12T17:31:32.739Z,64.00
2018-11-12T17:34:00.300Z,64.00
2018-11-12T17:36:27.902Z,64.00
2018-11-12T17:38:55.650Z,64.00
2018-11-12T17:41:23.440Z,64.20
2018-11-12T17:43:51.035Z,64.20
2018-11-12T17:46:19.661Z,64.10
2018-11-12T17:48:47.275Z,64.40
2018-11-12T17:51:14.837Z,64.20
2018-11-12T17:53:43.072Z,64.20
2018-11-12T17:56:11.041Z,64.30
2018-11-12T17:58:39.558Z,64.40
2018-11-12T18:01:07.484Z,64.40
2018-11-12T18:03:35.067Z,64.40
2018-11-12T18:06:02.934Z,64.40
2018-11-12T18:08:30.443Z,64.40
2018-11-12T18:10:58.155Z,64.40
2018-11-12T18:13:25.822Z,64.40
2018-11-12T18:15:53.506Z,64.50
2018-11-12T18:18:21.007Z,64.50
2018-11-12T18:20:48.831Z,65.30
2018-11-12T18:23:16.415Z,64.60
2018-11-12T18:25:43.984Z,64.60
2018-11-12T18:28:11.980Z,64.70
2018-11-12T18:30:39.751Z,64.60
2018-11-12T18:33:07.094Z,64.70
2018-11-12T18:35:34.691Z,64.80
2018-11-12T18:38:02.250Z,64.80
2018-11-12T18:40:29.797Z,64.90
2018-11-12T18:42:57.378Z,65.00
2018-11-12T18:45:25.858Z,65.10
2018-11-12T18:47:53.632Z,65.10
2018-11-12T18:50:24.330Z,65.20
2018-11-12T18:52:51.861Z,65.20
2018-11-12T18:55:19.463Z,65.30
2018-11-12T18:57:47.972Z,65.40
2018-11-12T19:00:16.876Z,65.40
2018-11-12T19:02:44.618Z,65.40
2018-11-12T19:05:16.228Z,65.40
2018-11-12T19:07:44.794Z,65.40
2018-11-12T19:10:16.800Z,65.40
2018-11-12T19:12:45.469Z,65.40
2018-11-12T19:15:14.146Z,65.50
2018-11-12T19:17:42.992Z,65.50
2018-11-12T19:20:10.503Z,65.60
2018-11-12T19:22:38.024Z,65.70
2018-11-12T19:25:08.209Z,65.70
2018-11-12T19:27:35.760Z,65.70
2018-11-12T19:30:03.889Z,65.70
2018-11-12T19:32:31.911Z,65.80
2018-11-12T19:34:59.412Z,65.80
2018-11-12T19:37:26.931Z,65.80
2018-11-12T19:39:54.289Z,65.90
2018-11-12T19:42:21.799Z,65.90
2018-11-12T19:44:49.399Z,65.90
2018-11-12T19:47:17.385Z,66.00
2018-11-12T19:49:44.934Z,66.00
2018-11-12T19:52:12.467Z,65.90
2018-11-12T19:54:40.259Z,65.90
2018-11-12T19:57:07.804Z,66.50
2018-11-12T19:59:35.312Z,66.00
2018-11-12T20:02:03.340Z,66.00
2018-11-12T20:04:30.925Z,66.00
2018-11-12T20:06:58.455Z,66.10
2018-11-12T20:09:26.465Z,66.10
2018-11-12T20:11:54.003Z,66.10
2018-11-12T20:14:23.099Z,66.20
2018-11-12T20:16:50.683Z,66.20
2018-11-12T20:19:18.259Z,66.30
2018-11-12T20:21:45.834Z,66.30
2018-11-12T20:24:13.688Z,66.30
2018-11-12T20:26:41.167Z,66.30
2018-11-12T20:29:09.119Z,66.40
2018-11-12T20:31:36.863Z,66.50
2018-11-12T20:34:04.812Z,67.30
2018-11-12T20:36:32.695Z,66.60
2018-11-12T20:39:00.252Z,66.60
2018-11-12T20:41:28.362Z,66.60
2018-11-12T20:43:56.019Z,66.60
2018-11-12T20:46:23.612Z,66.60
2018-11-12T20:48:51.120Z,66.60
2018-11-12T20:51:18.716Z,66.50
2018-11-12T20:53:46.255Z,66.60
2018-11-12T20:56:13.824Z,66.60
2018-11-12T20:58:41.579Z,66.60
2018-11-12T21:01:09.117Z,66.60
2018-11-12T21:03:36.780Z,66.60
2018-11-12T21:06:04.923Z,66.60
2018-11-12T21:08:32.476Z,66.60
2018-11-12T21:11:00.200Z,66.60
2018-11-12T21:13:28.390Z,66.60
2018-11-12T21:15:56.612Z,66.70
2018-11-12T21:18:24.292Z,66.70
2018-11-12T21:20:52.249Z,66.80
2018-11-12T21:23:20.255Z,66.80
2018-11-12T21:25:48.897Z,66.80
2018-11-12T21:28:17.245Z,66.90
2018-11-12T21:30:44.836Z,66.90
2018-11-12T21:33:12.482Z,66.90
2018-11-12T21:35:40.025Z,66.90
2018-11-12T21:38:07.769Z,67.00
2018-11-12T21:40:35.370Z,67.00
2018-11-12T21:43:07.665Z,67.10
2018-11-12T21:45:51.315Z,67.10
2018-11-12T21:48:29.027Z,67.10
2018-11-12T21:51:26.019Z,67.10
2018-11-12T21:53:58.471Z,67.10
2018-11-12T21:56:26.389Z,67.10
2018-11-12T21:58:53.896Z,67.10
2018-11-12T22:01:21.667Z,67.20
2018-11-12T22:03:49.474Z,67.10
2018-11-12T22:06:16.988Z,67.10
2018-11-12T22:08:46.457Z,67.00
2018-11-12T22:11:13.920Z,67.00
2018-11-12T22:13:41.476Z,67.00
2018-11-12T22:16:09.079Z,67.00
2018-11-12T22:18:36.611Z,67.00
2018-11-12T22:21:04.487Z,66.90
2018-11-12T22:23:32.448Z,67.00
2018-11-12T22:26:00.065Z,66.90
2018-11-12T22:28:27.647Z,66.90
2018-11-12T22:30:55.456Z,66.90
2018-11-12T22:33:23.076Z,66.90
2018-11-12T22:35:50.718Z,66.90
2018-11-12T22:38:18.455Z,66.90
2018-11-12T22:40:47.171Z,66.90
2018-11-12T22:43:14.717Z,66.90
2018-11-12T22:45:42.883Z,67.00
2018-11-12T22:48:10.391Z,67.00
2018-11-12T22:50:38.035Z,67.00
2018-11-12T22:53:05.888Z,67.10
2018-11-12T22:55:33.434Z,67.10
2018-11-12T22:58:00.931Z,67.20
2018-11-12T23:00:34.356Z,66.50
2018-11-12T23:03:01.962Z,67.20
2018-11-12T23:05:29.580Z,67.20
2018-11-12T23:07:57.200Z,67.10
2018-11-12T23:10:25.092Z,67.00
2018-11-12T23:12:52.747Z,66.90
2018-11-12T23:15:21.433Z,67.00
2018-11-12T23:17:49.426Z,66.90
2018-11-12T23:20:19.418Z,66.90
2018-11-12T23:22:47.707Z,66.90
2018-11-12T23:25:15.226Z,67.00
2018-11-12T23:27:43.730Z,66.90
2018-11-12T23:30:13.281Z,66.90
2018-11-12T23:32:40.839Z,66.90
2018-11-12T23:35:10.549Z,66.80
2018-11-12T23:37:38.534Z,66.80
2018-11-12T23:40:06.643Z,66.80
2018-11-12T23:42:34.131Z,66.80
2018-11-12T23:45:01.850Z,66.70
2018-11-12T23:47:34.258Z,66.70
2018-11-12T23:50:11.364Z,66.70
2018-11-12T23:52:50.177Z,66.60
2018-11-12T23:55:18.411Z,66.60
2018-11-12T23:57:49.192Z,66.50
